Rotterdam — PDGS — position and weather

sailwx.info

Track history (hours):
 
Tides and Currents Weather Stations Pressure Air Temp Water Temp Dewpoint Dewpoint Depression Visibility Wind Speed Wind Dir Waves Ship Positions

Rotterdam

Operator: Holland America Line

Last reported at 2017-Apr-29 03:00 UTC. Time now 2017-Apr-29 03:23 UTC.
Position N 51°56' E 004°13'.

Length 228 m; beam 29 m.

Type: Ship. MMSI: 24616700.

Date/timePositionNaut miles runAvg speedWind from/ knotsBaromVisibWave heightAir tempDewpointWater temp
2017-Apr-29 03:00N 51°56' E 004°13'612.4
2017-Apr-29 02:30N 51°59' E 004°05'917.8
2017-Apr-29 02:00N 51°60' E 003°50'510.6
2017-Apr-29 01:30N 51°58' E 003°42'5 9.9
2017-Apr-29 00:58N 51°57' E 003°33'510.9
2017-Apr-29 00:30N 51°56' E 003°25'510.8
2017-Apr-29 00:00N 51°55' E 003°17'610.5
2017-Apr-28 23:27N 51°53' E 003°08'510.7
2017-Apr-28 22:58N 51°51' E 003°00'2710.3
2017-Apr-28 20:18N 51°35' E 002°24'310.2
2017-Apr-28 20:00N 51°34' E 002°20'510.1
2017-Apr-28 19:31N 51°30' E 002°15'5 8.9
2017-Apr-28 19:00N 51°27' E 002°10'4 9.0
2017-Apr-28 18:30N 51°22' E 002°08'612.9
2017-Apr-28 18:00N 51°16' E 002°06'510.6
2017-Apr-28 17:30N 51°13' E 001°60'510.2
2017-Apr-28 17:00N 51°10' E 001°52'510.1
2017-Apr-28 16:30N 51°08' E 001°46'611.1
2017-Apr-28 16:00N 51°03' E 001°40'612.2
2017-Apr-28 15:30N 50°59' E 001°33'612.4
2017-Apr-28 15:00N 50°54' E 001°27'5511.3
2017-Apr-28 10:07N 50°21' E 000°18'1712.9
2017-Apr-28 08:50N 50°14' W 000°06'412.3
2017-Apr-28 08:29N 50°15' W 000°13'40 4.3
2017-Apr-27 23:16N 49°42' W 000°49'311.6
2017-Apr-27 23:00N 49°42' W 000°45'510.8
2017-Apr-27 22:30N 49°40' W 000°37'510.3
2017-Apr-27 22:00N 49°37' W 000°31'510.3
2017-Apr-27 21:30N 49°35' W 000°23'510.5
2017-Apr-27 21:00N 49°33' W 000°15'510.9
2017-Apr-27 20:30N 49°31' W 000°08'510.8
2017-Apr-27 20:00N 49°30' E 000°00'4 8.3
2017-Apr-27 19:30N 49°29' E 000°06'0 0.0
2017-Apr-27 19:00N 49°29' E 000°06'0 0.0
2017-Apr-27 18:30N 49°29' E 000°06'0 0.0
2017-Apr-27 18:00N 49°29' E 000°06'0 0.0
2017-Apr-27 17:30N 49°29' E 000°06'0 0.0
2017-Apr-27 17:00N 49°29' E 000°06'0 0.0
2017-Apr-27 16:30N 49°29' E 000°06'0 0.0
2017-Apr-27 16:00N 49°29' E 000°06'0 0.0
2017-Apr-27 15:30N 49°29' E 000°06'0 0.0
2017-Apr-27 15:00N 49°29' E 000°06'0 0.0
2017-Apr-27 14:00N 49°29' E 000°06'0 0.0
2017-Apr-27 13:30N 49°29' E 000°06'0 0.0
2017-Apr-27 13:00N 49°29' E 000°06'0 0.0
2017-Apr-27 12:30N 49°29' E 000°06'0 0.0
2017-Apr-27 12:00N 49°29' E 000°06'0 0.0
2017-Apr-27 11:30N 49°29' E 000°06'0 0.0
2017-Apr-27 11:00N 49°29' E 000°06'0 0.0
2017-Apr-27 10:30N 49°29' E 000°06'0 0.0
2017-Apr-27 10:00N 49°29' E 000°06'0 0.0
2017-Apr-27 09:30N 49°29' E 000°06'0 0.0
2017-Apr-27 09:00N 49°29' E 000°06'0 0.0
2017-Apr-27 08:30N 49°29' E 000°06'0 0.0
2017-Apr-27 08:00N 49°29' E 000°06'0 0.0
2017-Apr-27 07:30N 49°29' E 000°06'0 0.0
2017-Apr-27 07:00N 49°29' E 000°06'0 0.0
2017-Apr-27 06:30N 49°29' E 000°06'0 0.0
2017-Apr-27 06:00N 49°29' E 000°06'0 0.0
2017-Apr-27 05:30N 49°29' E 000°06'0 0.0
2017-Apr-27 05:00N 49°29' E 000°06'0 0.6
2017-Apr-27 04:31N 49°29' E 000°07'2 4.1
2017-Apr-27 04:00N 49°29' E 000°04'714.8
2017-Apr-27 03:30N 49°32' W 000°07'612.5
2017-Apr-27 03:01N 49°33' W 000°16'612.5
2017-Apr-27 02:30N 49°35' W 000°25'612.8
2017-Apr-27 02:01N 49°40' W 000°32'612.2
2017-Apr-27 01:31N 49°44' W 000°40'712.4
2017-Apr-27 00:55N 49°49' W 000°48'512.5
2017-Apr-27 00:30N 49°52' W 000°54'7212.0
2017-Apr-26 18:28N 50°36' W 002°24'2 0.1
2017-Apr-26 06:11N 50°34' W 002°26'0 0.1
2017-Apr-26 05:47N 50°34' W 002°26'1 2.3
2017-Apr-26 05:25N 50°35' W 002°25'2 4.5
2017-Apr-26 04:59N 50°34' W 002°22'911.1
2017-Apr-26 04:11N 50°28' W 002°31'213.6
2017-Apr-26 04:00N 50°26' W 002°34'815.0
2017-Apr-26 03:30N 50°22' W 002°44'815.3
2017-Apr-26 03:00N 50°19' W 002°54'815.1
2017-Apr-26 02:30N 50°14' W 003°04'815.6
2017-Apr-26 02:00N 50°09' W 003°13'815.7
2017-Apr-26 01:30N 50°04' W 003°22'815.4
2017-Apr-26 01:00N 49°60' W 003°33'815.5
2017-Apr-26 00:30N 49°56' W 003°43'917.0
2017-Apr-26 00:00N 49°52' W 003°55'53912.2
2017-Apr-24 03:50N 41°39' W 009°06'717.9
2017-Apr-24 03:25N 41°32' W 009°10'818.2
2017-Apr-24 03:00N 41°25' W 009°13'1018.2
2017-Apr-24 02:28N 41°15' W 009°15'3918.1
2017-Apr-24 00:19N 40°38' W 009°29'817.5
2017-Apr-23 23:53N 40°30' W 009°31'717.4
2017-Apr-23 23:29N 40°24' W 009°33'917.5
2017-Apr-23 23:00N 40°15' W 009°36'917.6
2017-Apr-23 22:30N 40°07' W 009°39'917.6
2017-Apr-23 22:00N 39°58' W 009°41'1018.0
2017-Apr-23 21:27N 39°49' W 009°44'817.7
2017-Apr-23 21:00N 39°41' W 009°46'917.6
2017-Apr-23 20:30N 39°32' W 009°48'1017.5
2017-Apr-23 19:57N 39°23' W 009°49'817.3
2017-Apr-23 19:30N 39°15' W 009°50'917.4
2017-Apr-23 19:00N 39°06' W 009°49'917.3
2017-Apr-23 18:30N 38°58' W 009°50'917.4
2017-Apr-23 18:01N 38°49' W 009°50'917.2
2017-Apr-23 17:30N 38°40' W 009°49'815.6
2017-Apr-23 17:00N 38°35' W 009°42'918.0
2017-Apr-23 16:30N 38°35' W 009°30'714.6
2017-Apr-23 16:00N 38°38' W 009°21'611.8
2017-Apr-23 15:30N 38°41' W 009°15'510.3
2017-Apr-23 15:00N 38°42' W 009°08'1 0.9
2017-Apr-23 13:53N 38°43' W 009°07'0 0.0
2017-Apr-23 13:29N 38°43' W 009°07'0 0.0
2017-Apr-23 12:59N 38°43' W 009°07'0 0.0
2017-Apr-23 12:26N 38°43' W 009°07'0 0.0
2017-Apr-23 11:56N 38°43' W 009°07'0 0.0
2017-Apr-23 11:29N 38°43' W 009°07'0 0.0
2017-Apr-23 10:59N 38°43' W 009°07'0 0.0
2017-Apr-23 10:29N 38°43' W 009°07'0 0.0
2017-Apr-23 09:59N 38°43' W 009°07'0 0.0
2017-Apr-23 09:29N 38°43' W 009°07'0 0.0
2017-Apr-23 08:50N 38°43' W 009°07'0 0.0
2017-Apr-23 08:26N 38°43' W 009°07'0 0.0
2017-Apr-23 07:59N 38°43' W 009°07'0 0.0
2017-Apr-23 07:29N 38°43' W 009°07'0 0.0
2017-Apr-23 06:59N 38°43' W 009°07'0 0.0
2017-Apr-23 06:29N 38°43' W 009°07'0 0.0
2017-Apr-23 05:59N 38°43' W 009°07'0 0.0
2017-Apr-23 05:29N 38°43' W 009°07'0 0.0
2017-Apr-23 04:59N 38°43' W 009°07'0 0.0
2017-Apr-23 04:29N 38°43' W 009°07'0 0.0
2017-Apr-23 03:59N 38°43' W 009°07'0 0.0
2017-Apr-23 03:29N 38°43' W 009°07'0 0.0
2017-Apr-23 02:59N 38°43' W 009°07'0 0.0
2017-Apr-23 02:26N 38°43' W 009°07'0 0.0
2017-Apr-23 01:59N 38°43' W 009°07'0 0.0
2017-Apr-23 01:29N 38°43' W 009°07'0 0.0
2017-Apr-23 00:59N 38°43' W 009°07'0 0.0
2017-Apr-23 00:29N 38°43' W 009°07'0 0.0
2017-Apr-22 23:59N 38°43' W 009°07'0 0.0
2017-Apr-22 23:29N 38°43' W 009°07'0 0.0
2017-Apr-22 22:59N 38°43' W 009°07'0 0.0
2017-Apr-22 22:29N 38°43' W 009°07'0 0.0
2017-Apr-22 21:59N 38°43' W 009°07'0 0.0
2017-Apr-22 21:29N 38°43' W 009°07'0 0.0
2017-Apr-22 20:59N 38°43' W 009°07'0 0.0
2017-Apr-22 20:29N 38°43' W 009°07'0 0.0
2017-Apr-22 19:59N 38°43' W 009°07'0 0.0
2017-Apr-22 19:29N 38°43' W 009°07'0 0.0
2017-Apr-22 18:59N 38°43' W 009°07'0 0.0
2017-Apr-22 18:29N 38°43' W 009°07'0 0.0
2017-Apr-22 17:59N 38°43' W 009°07'0 0.0
2017-Apr-22 17:29N 38°43' W 009°07'0 0.0
2017-Apr-22 16:56N 38°43' W 009°07'0 0.0
2017-Apr-22 16:29N 38°43' W 009°07'0 0.0
2017-Apr-22 15:59N 38°43' W 009°07'0 0.0
2017-Apr-22 15:29N 38°43' W 009°07'0 0.0
2017-Apr-22 14:59N 38°43' W 009°07'0 0.0
2017-Apr-22 14:29N 38°43' W 009°07'0 0.0
2017-Apr-22 13:26N 38°43' W 009°07'0 0.0
2017-Apr-22 12:59N 38°43' W 009°07'0 0.0
2017-Apr-22 12:29N 38°43' W 009°07'0 0.0
2017-Apr-22 11:59N 38°43' W 009°07'0 0.0
2017-Apr-22 11:26N 38°43' W 009°07'0 0.0
2017-Apr-22 10:59N 38°43' W 009°07'0 0.0
2017-Apr-22 10:29N 38°43' W 009°07'0 0.0
2017-Apr-22 09:59N 38°43' W 009°07'0 0.0
2017-Apr-22 09:29N 38°43' W 009°07'0 0.0
2017-Apr-22 08:59N 38°43' W 009°07'0 0.7
2017-Apr-22 08:30N 38°43' W 009°07'5 9.2
2017-Apr-22 07:59N 38°41' W 009°13'510.3
2017-Apr-22 07:28N 38°39' W 009°19'510.8
2017-Apr-22 07:00N 38°36' W 009°24'714.2
2017-Apr-22 06:30N 38°29' W 009°24'815.2
2017-Apr-22 06:00N 38°21' W 009°24'815.5
2017-Apr-22 05:31N 38°14' W 009°23'815.6
2017-Apr-22 05:00N 38°06' W 009°23'815.5
2017-Apr-22 04:30N 37°58' W 009°23'815.4
2017-Apr-22 04:00N 37°50' W 009°23'815.3
2017-Apr-22 03:30N 37°43' W 009°24'7011.6
2017-Apr-21 21:30N 36°46' W 008°32'915.0
2017-Apr-21 20:53N 36°48' W 008°21'615.4
2017-Apr-21 20:30N 36°49' W 008°13'715.0
2017-Apr-21 20:01N 36°50' W 008°05'129 5.5
2017-Apr-20 20:44N 35°58' W 005°38'416.0
2017-Apr-20 20:30N 35°58' W 005°34'815.3
2017-Apr-20 20:01N 36°01' W 005°25'714.7
2017-Apr-20 19:31N 36°03' W 005°17'714.5
2017-Apr-20 18:59N 36°06' W 005°08'  
Track history (hours):
 
Tides and Currents Weather Stations Pressure Air Temp Water Temp Dewpoint Dewpoint Depression Visibility Wind Speed Wind Dir Waves Ship Positions

Rotterdam

Operator: Holland America Line

Last reported at 2017-Apr-29 03:00 UTC. Time now 2017-Apr-29 03:23 UTC.
Position N 51°56' E 004°13'.

Length 228 m; beam 29 m.

Type: Ship. MMSI: 24616700.

Date/timePositionNaut miles runAvg speedWind from/ knotsBaromVisibWave heightAir tempDewpointWater temp
2017-Apr-29 03:00N 51°56' E 004°13'612.4
2017-Apr-29 02:30N 51°59' E 004°05'917.8
2017-Apr-29 02:00N 51°60' E 003°50'510.6
2017-Apr-29 01:30N 51°58' E 003°42'5 9.9
2017-Apr-29 00:58N 51°57' E 003°33'510.9
2017-Apr-29 00:30N 51°56' E 003°25'510.8
2017-Apr-29 00:00N 51°55' E 003°17'610.5
2017-Apr-28 23:27N 51°53' E 003°08'510.7
2017-Apr-28 22:58N 51°51' E 003°00'2710.3
2017-Apr-28 20:18N 51°35' E 002°24'310.2
2017-Apr-28 20:00N 51°34' E 002°20'510.1
2017-Apr-28 19:31N 51°30' E 002°15'5 8.9
2017-Apr-28 19:00N 51°27' E 002°10'4 9.0
2017-Apr-28 18:30N 51°22' E 002°08'612.9
2017-Apr-28 18:00N 51°16' E 002°06'510.6
2017-Apr-28 17:30N 51°13' E 001°60'510.2
2017-Apr-28 17:00N 51°10' E 001°52'510.1
2017-Apr-28 16:30N 51°08' E 001°46'611.1
2017-Apr-28 16:00N 51°03' E 001°40'612.2
2017-Apr-28 15:30N 50°59' E 001°33'612.4
2017-Apr-28 15:00N 50°54' E 001°27'5511.3
2017-Apr-28 10:07N 50°21' E 000°18'1712.9
2017-Apr-28 08:50N 50°14' W 000°06'412.3
2017-Apr-28 08:29N 50°15' W 000°13'40 4.3
2017-Apr-27 23:16N 49°42' W 000°49'311.6
2017-Apr-27 23:00N 49°42' W 000°45'510.8
2017-Apr-27 22:30N 49°40' W 000°37'510.3
2017-Apr-27 22:00N 49°37' W 000°31'510.3
2017-Apr-27 21:30N 49°35' W 000°23'510.5
2017-Apr-27 21:00N 49°33' W 000°15'510.9
2017-Apr-27 20:30N 49°31' W 000°08'510.8
2017-Apr-27 20:00N 49°30' E 000°00'4 8.3
2017-Apr-27 19:30N 49°29' E 000°06'0 0.0
2017-Apr-27 19:00N 49°29' E 000°06'0 0.0
2017-Apr-27 18:30N 49°29' E 000°06'0 0.0
2017-Apr-27 18:00N 49°29' E 000°06'0 0.0
2017-Apr-27 17:30N 49°29' E 000°06'0 0.0
2017-Apr-27 17:00N 49°29' E 000°06'0 0.0
2017-Apr-27 16:30N 49°29' E 000°06'0 0.0
2017-Apr-27 16:00N 49°29' E 000°06'0 0.0
2017-Apr-27 15:30N 49°29' E 000°06'0 0.0
2017-Apr-27 15:00N 49°29' E 000°06'0 0.0
2017-Apr-27 14:00N 49°29' E 000°06'0 0.0
2017-Apr-27 13:30N 49°29' E 000°06'0 0.0
2017-Apr-27 13:00N 49°29' E 000°06'0 0.0
2017-Apr-27 12:30N 49°29' E 000°06'0 0.0
2017-Apr-27 12:00N 49°29' E 000°06'0 0.0
2017-Apr-27 11:30N 49°29' E 000°06'0 0.0
2017-Apr-27 11:00N 49°29' E 000°06'0 0.0
2017-Apr-27 10:30N 49°29' E 000°06'0 0.0
2017-Apr-27 10:00N 49°29' E 000°06'0 0.0
2017-Apr-27 09:30N 49°29' E 000°06'0 0.0
2017-Apr-27 09:00N 49°29' E 000°06'0 0.0
2017-Apr-27 08:30N 49°29' E 000°06'0 0.0
2017-Apr-27 08:00N 49°29' E 000°06'0 0.0
2017-Apr-27 07:30N 49°29' E 000°06'0 0.0
2017-Apr-27 07:00N 49°29' E 000°06'0 0.0
2017-Apr-27 06:30N 49°29' E 000°06'0 0.0
2017-Apr-27 06:00N 49°29' E 000°06'0 0.0
2017-Apr-27 05:30N 49°29' E 000°06'0 0.0
2017-Apr-27 05:00N 49°29' E 000°06'0 0.6
2017-Apr-27 04:31N 49°29' E 000°07'2 4.1
2017-Apr-27 04:00N 49°29' E 000°04'714.8
2017-Apr-27 03:30N 49°32' W 000°07'612.5
2017-Apr-27 03:01N 49°33' W 000°16'612.5
2017-Apr-27 02:30N 49°35' W 000°25'612.8
2017-Apr-27 02:01N 49°40' W 000°32'612.2
2017-Apr-27 01:31N 49°44' W 000°40'712.4
2017-Apr-27 00:55N 49°49' W 000°48'512.5
2017-Apr-27 00:30N 49°52' W 000°54'7212.0
2017-Apr-26 18:28N 50°36' W 002°24'2 0.1
2017-Apr-26 06:11N 50°34' W 002°26'0 0.1
2017-Apr-26 05:47N 50°34' W 002°26'1 2.3
2017-Apr-26 05:25N 50°35' W 002°25'2 4.5
2017-Apr-26 04:59N 50°34' W 002°22'911.1
2017-Apr-26 04:11N 50°28' W 002°31'213.6
2017-Apr-26 04:00N 50°26' W 002°34'815.0
2017-Apr-26 03:30N 50°22' W 002°44'815.3
2017-Apr-26 03:00N 50°19' W 002°54'815.1
2017-Apr-26 02:30N 50°14' W 003°04'815.6
2017-Apr-26 02:00N 50°09' W 003°13'815.7
2017-Apr-26 01:30N 50°04' W 003°22'815.4
2017-Apr-26 01:00N 49°60' W 003°33'815.5
2017-Apr-26 00:30N 49°56' W 003°43'917.0
2017-Apr-26 00:00N 49°52' W 003°55'53912.2
2017-Apr-24 03:50N 41°39' W 009°06'717.9
2017-Apr-24 03:25N 41°32' W 009°10'818.2
2017-Apr-24 03:00N 41°25' W 009°13'1018.2
2017-Apr-24 02:28N 41°15' W 009°15'3918.1
2017-Apr-24 00:19N 40°38' W 009°29'817.5
2017-Apr-23 23:53N 40°30' W 009°31'717.4
2017-Apr-23 23:29N 40°24' W 009°33'917.5
2017-Apr-23 23:00N 40°15' W 009°36'917.6
2017-Apr-23 22:30N 40°07' W 009°39'917.6
2017-Apr-23 22:00N 39°58' W 009°41'1018.0
2017-Apr-23 21:27N 39°49' W 009°44'817.7
2017-Apr-23 21:00N 39°41' W 009°46'917.6
2017-Apr-23 20:30N 39°32' W 009°48'1017.5
2017-Apr-23 19:57N 39°23' W 009°49'817.3
2017-Apr-23 19:30N 39°15' W 009°50'917.4
2017-Apr-23 19:00N 39°06' W 009°49'917.3
2017-Apr-23 18:30N 38°58' W 009°50'917.4
2017-Apr-23 18:01N 38°49' W 009°50'917.2
2017-Apr-23 17:30N 38°40' W 009°49'815.6
2017-Apr-23 17:00N 38°35' W 009°42'918.0
2017-Apr-23 16:30N 38°35' W 009°30'714.6
2017-Apr-23 16:00N 38°38' W 009°21'611.8
2017-Apr-23 15:30N 38°41' W 009°15'510.3
2017-Apr-23 15:00N 38°42' W 009°08'1 0.9
2017-Apr-23 13:53N 38°43' W 009°07'0 0.0
2017-Apr-23 13:29N 38°43' W 009°07'0 0.0
2017-Apr-23 12:59N 38°43' W 009°07'0 0.0
2017-Apr-23 12:26N 38°43' W 009°07'0 0.0
2017-Apr-23 11:56N 38°43' W 009°07'0 0.0
2017-Apr-23 11:29N 38°43' W 009°07'0 0.0
2017-Apr-23 10:59N 38°43' W 009°07'0 0.0
2017-Apr-23 10:29N 38°43' W 009°07'0 0.0
2017-Apr-23 09:59N 38°43' W 009°07'0 0.0
2017-Apr-23 09:29N 38°43' W 009°07'0 0.0
2017-Apr-23 08:50N 38°43' W 009°07'0 0.0
2017-Apr-23 08:26N 38°43' W 009°07'0 0.0
2017-Apr-23 07:59N 38°43' W 009°07'0 0.0
2017-Apr-23 07:29N 38°43' W 009°07'0 0.0
2017-Apr-23 06:59N 38°43' W 009°07'0 0.0
2017-Apr-23 06:29N 38°43' W 009°07'0 0.0
2017-Apr-23 05:59N 38°43' W 009°07'0 0.0
2017-Apr-23 05:29N 38°43' W 009°07'0 0.0
2017-Apr-23 04:59N 38°43' W 009°07'0 0.0
2017-Apr-23 04:29N 38°43' W 009°07'0 0.0
2017-Apr-23 03:59N 38°43' W 009°07'0 0.0
2017-Apr-23 03:29N 38°43' W 009°07'0 0.0
2017-Apr-23 02:59N 38°43' W 009°07'0 0.0
2017-Apr-23 02:26N 38°43' W 009°07'0 0.0
2017-Apr-23 01:59N 38°43' W 009°07'0 0.0
2017-Apr-23 01:29N 38°43' W 009°07'0 0.0
2017-Apr-23 00:59N 38°43' W 009°07'0 0.0
2017-Apr-23 00:29N 38°43' W 009°07'0 0.0
2017-Apr-22 23:59N 38°43' W 009°07'0 0.0
2017-Apr-22 23:29N 38°43' W 009°07'0 0.0
2017-Apr-22 22:59N 38°43' W 009°07'0 0.0
2017-Apr-22 22:29N 38°43' W 009°07'0 0.0
2017-Apr-22 21:59N 38°43' W 009°07'0 0.0
2017-Apr-22 21:29N 38°43' W 009°07'0 0.0
2017-Apr-22 20:59N 38°43' W 009°07'0 0.0
2017-Apr-22 20:29N 38°43' W 009°07'0 0.0
2017-Apr-22 19:59N 38°43' W 009°07'0 0.0
2017-Apr-22 19:29N 38°43' W 009°07'0 0.0
2017-Apr-22 18:59N 38°43' W 009°07'0 0.0
2017-Apr-22 18:29N 38°43' W 009°07'0 0.0
2017-Apr-22 17:59N 38°43' W 009°07'0 0.0
2017-Apr-22 17:29N 38°43' W 009°07'0 0.0
2017-Apr-22 16:56N 38°43' W 009°07'0 0.0
2017-Apr-22 16:29N 38°43' W 009°07'0 0.0
2017-Apr-22 15:59N 38°43' W 009°07'0 0.0
2017-Apr-22 15:29N 38°43' W 009°07'0 0.0
2017-Apr-22 14:59N 38°43' W 009°07'0 0.0
2017-Apr-22 14:29N 38°43' W 009°07'0 0.0
2017-Apr-22 13:26N 38°43' W 009°07'0 0.0
2017-Apr-22 12:59N 38°43' W 009°07'0 0.0
2017-Apr-22 12:29N 38°43' W 009°07'0 0.0
2017-Apr-22 11:59N 38°43' W 009°07'0 0.0
2017-Apr-22 11:26N 38°43' W 009°07'0 0.0
2017-Apr-22 10:59N 38°43' W 009°07'0 0.0
2017-Apr-22 10:29N 38°43' W 009°07'0 0.0
2017-Apr-22 09:59N 38°43' W 009°07'0 0.0
2017-Apr-22 09:29N 38°43' W 009°07'0 0.0
2017-Apr-22 08:59N 38°43' W 009°07'0 0.7
2017-Apr-22 08:30N 38°43' W 009°07'5 9.2
2017-Apr-22 07:59N 38°41' W 009°13'510.3
2017-Apr-22 07:28N 38°39' W 009°19'510.8
2017-Apr-22 07:00N 38°36' W 009°24'714.2
2017-Apr-22 06:30N 38°29' W 009°24'815.2
2017-Apr-22 06:00N 38°21' W 009°24'815.5
2017-Apr-22 05:31N 38°14' W 009°23'815.6
2017-Apr-22 05:00N 38°06' W 009°23'815.5
2017-Apr-22 04:30N 37°58' W 009°23'815.4
2017-Apr-22 04:00N 37°50' W 009°23'815.3
2017-Apr-22 03:30N 37°43' W 009°24'7011.6
2017-Apr-21 21:30N 36°46' W 008°32'915.0
2017-Apr-21 20:53N 36°48' W 008°21'615.4
2017-Apr-21 20:30N 36°49' W 008°13'715.0
2017-Apr-21 20:01N 36°50' W 008°05'129 5.5
2017-Apr-20 20:44N 35°58' W 005°38'416.0
2017-Apr-20 20:30N 35°58' W 005°34'815.3
2017-Apr-20 20:01N 36°01' W 005°25'714.7
2017-Apr-20 19:31N 36°03' W 005°17'714.5
2017-Apr-20 18:59N 36°06' W 005°08'  

Dump ship's entire track history